Startpagina
METAR-TAF:

METAR-TAF

Vliegvelden :

Longyearbyen, Noorwegen

Luchthaven Svalbard Longyear

breedte: 78-15N, lengte: 015-28E, hoogte: 2 m

Actueel weer

Dit bericht is 31 minuten geleden gemaakt, om 14:50 UTC
Weinig wind
Temperatuur 3°C
Vochtigheid 93%
Druk 1017 hPa
Zicht 10 km of meer
Weinig wolken op 500 ft
Gebroken wolken op 2500 ft

METAR: ENSB 221450Z 00000KT 9999 FEW005 BKN025 03/02 Q1017 RMK WIND 1400FT 22008KT

Tijdstip: 17:21 (15:21 UTC)

Verwachting

Verwachting geldig van 22 om 12 UTC tot 23 om 12 UTC
Wind 5 kt uit variabele richting
Zicht 10 km of meer
Weinig wolken op 500 ft
Gebroken wolken op 3000 ft
Tijdelijke
van 23 om 00 UTC tot 23 om 06 UTC
Wind 15 kt uit het zuidoosten
Wijzigt naar
van 23 om 05 UTC tot 23 om 07 UTC
Wind 15 kt uit het westzuidwesten

TAF: ENSB 2212/2312 VRB05KT 9999 FEW005 BKN030 TEMPO 2300/2306 13015KT BECMG 2305/2307 24015KT

Waarnemingen en weersverwachtingen van meer dan 4000 vliegvelden (METAR en TAF).

De beschikbare stations zijn de gele en rode punten op de kaart.

Ga met uw muis naar het station om de naam te zien.

Klik dan om waarnemingen en weersverwachtingen te zien.

kaart wijzigen: klik op de groene knoppen met een zwart kruis om in te zoomen, op de groene knop met een streepje om uit te zoomen of op de groene pijlen voor aangrenzende kaarten.


METAR-TAF: